createdAt,value
2022-09-23T00:01:09.769Z,100.00
2022-09-23T00:03:43.157Z,100.00
2022-09-23T00:05:46.037Z,100.00
2022-09-23T00:07:49.198Z,100.00
2022-09-23T00:14:33.054Z,100.00
2022-09-23T00:16:36.263Z,100.00
2022-09-23T00:18:39.329Z,100.00
2022-09-23T00:20:43.470Z,100.00
2022-09-23T00:22:46.303Z,100.00
2022-09-23T00:24:49.043Z,100.00
2022-09-23T00:26:52.027Z,100.00
2022-09-23T00:28:54.835Z,100.00
2022-09-23T00:30:57.791Z,100.00
2022-09-23T00:33:00.660Z,100.00
2022-09-23T00:35:04.120Z,100.00
2022-09-23T00:37:08.270Z,100.00
2022-09-23T00:39:11.129Z,100.00
2022-09-23T00:41:15.245Z,100.00
2022-09-23T00:43:18.739Z,100.00
2022-09-23T00:45:21.633Z,100.00
2022-09-23T00:47:30.685Z,100.00
2022-09-23T00:49:33.497Z,100.00
2022-09-23T00:51:43.390Z,100.00
2022-09-23T00:53:49.502Z,100.00
2022-09-23T00:55:56.985Z,100.00
2022-09-23T00:58:02.592Z,100.00
2022-09-23T01:00:07.474Z,100.00
2022-09-23T01:02:14.268Z,100.00
2022-09-23T01:04:17.166Z,100.00
2022-09-23T01:06:20.442Z,100.00
2022-09-23T01:08:24.776Z,100.00
2022-09-23T01:10:36.879Z,100.00
2022-09-23T01:12:59.994Z,100.00
2022-09-23T01:15:13.019Z,100.00
2022-09-23T01:17:19.395Z,100.00
2022-09-23T01:19:57.074Z,100.00
2022-09-23T01:22:05.842Z,100.00
2022-09-23T01:24:38.830Z,100.00
2022-09-23T01:26:56.649Z,100.00
2022-09-23T01:29:20.908Z,100.00
2022-09-23T01:31:35.831Z,100.00
2022-09-23T01:33:46.915Z,100.00
2022-09-23T01:36:01.977Z,100.00
2022-09-23T01:38:15.591Z,100.00
2022-09-23T01:40:23.936Z,100.00
2022-09-23T01:42:32.337Z,100.00
2022-09-23T01:44:43.005Z,100.00
2022-09-23T01:46:51.484Z,100.00
2022-09-23T01:49:00.594Z,100.00
2022-09-23T01:51:08.565Z,100.00
2022-09-23T01:53:16.822Z,100.00
2022-09-23T01:55:25.722Z,100.00
2022-09-23T01:57:34.459Z,100.00
2022-09-23T01:59:40.265Z,100.00
2022-09-23T02:01:48.433Z,100.00
2022-09-23T02:04:00.968Z,100.00
2022-09-23T02:06:10.442Z,100.00
2022-09-23T02:08:17.689Z,100.00
2022-09-23T02:10:25.847Z,100.00
2022-09-23T02:12:33.480Z,100.00
2022-09-23T02:14:43.527Z,100.00
2022-09-23T02:16:48.534Z,100.00
2022-09-23T02:18:57.314Z,100.00
2022-09-23T02:21:06.014Z,100.00
2022-09-23T02:23:13.252Z,100.00
2022-09-23T02:25:17.422Z,100.00
2022-09-23T02:27:25.828Z,100.00
2022-09-23T02:29:34.950Z,100.00
2022-09-23T02:31:42.849Z,100.00
2022-09-23T02:33:56.419Z,100.00
2022-09-23T02:36:07.915Z,100.00
2022-09-23T02:38:22.203Z,100.00
2022-09-23T02:40:32.356Z,100.00
2022-09-23T02:42:44.457Z,100.00
2022-09-23T02:44:47.293Z,100.00
2022-09-23T02:46:53.192Z,100.00
2022-09-23T02:49:02.750Z,100.00
2022-09-23T02:51:06.053Z,100.00
2022-09-23T02:53:08.966Z,100.00
2022-09-23T02:55:13.659Z,100.00
2022-09-23T02:57:16.456Z,100.00
2022-09-23T02:59:21.034Z,100.00
2022-09-23T03:01:37.302Z,100.00
2022-09-23T03:03:45.846Z,100.00
2022-09-23T03:05:56.596Z,100.00
2022-09-23T03:08:13.361Z,100.00
2022-09-23T03:10:23.977Z,100.00
2022-09-23T03:12:36.077Z,100.00
2022-09-23T03:14:49.431Z,100.00
2022-09-23T03:17:01.581Z,100.00
2022-09-23T03:19:17.791Z,100.00
2022-09-23T03:21:35.387Z,100.00
2022-09-23T03:23:40.691Z,100.00
2022-09-23T03:25:48.471Z,100.00
2022-09-23T03:27:51.933Z,100.00
2022-09-23T03:29:55.833Z,100.00
2022-09-23T03:32:00.417Z,100.00
2022-09-23T03:34:09.715Z,100.00
2022-09-23T03:36:33.341Z,100.00
2022-09-23T03:38:42.493Z,100.00
2022-09-23T03:40:47.824Z,100.00
2022-09-23T03:42:50.707Z,100.00
2022-09-23T03:44:56.431Z,100.00
2022-09-23T03:47:03.711Z,100.00
2022-09-23T03:49:15.344Z,100.00
2022-09-23T03:51:23.841Z,100.00
2022-09-23T03:53:26.659Z,100.00
2022-09-23T03:55:32.126Z,100.00
2022-09-23T03:57:35.028Z,100.00
2022-09-23T03:59:37.963Z,100.00
2022-09-23T04:01:41.808Z,100.00
2022-09-23T04:03:44.678Z,100.00
2022-09-23T04:05:48.497Z,100.00
2022-09-23T04:07:51.295Z,100.00
2022-09-23T04:09:54.294Z,100.00
2022-09-23T04:11:58.423Z,100.00
2022-09-23T04:14:01.153Z,100.00
2022-09-23T04:16:04.041Z,100.00
2022-09-23T04:18:06.912Z,100.00
2022-09-23T04:20:10.540Z,100.00
2022-09-23T04:22:13.385Z,100.00
2022-09-23T04:24:17.818Z,100.00
2022-09-23T04:26:20.503Z,100.00
2022-09-23T04:28:24.636Z,100.00
2022-09-23T04:30:27.503Z,100.00
2022-09-23T04:32:31.383Z,100.00
2022-09-23T04:34:34.127Z,100.00
2022-09-23T04:36:36.910Z,100.00
2022-09-23T04:38:39.753Z,100.00
2022-09-23T04:40:42.507Z,100.00
2022-09-23T04:42:45.296Z,100.00
2022-09-23T04:44:49.387Z,100.00
2022-09-23T04:46:52.174Z,100.00
2022-09-23T04:48:55.002Z,100.00
2022-09-23T04:51:04.124Z,100.00
2022-09-23T04:53:07.880Z,100.00
2022-09-23T04:55:11.465Z,100.00
2022-09-23T04:57:15.157Z,100.00
2022-09-23T04:59:17.939Z,100.00
2022-09-23T05:01:24.302Z,100.00
2022-09-23T05:03:27.116Z,100.00
2022-09-23T05:05:31.131Z,100.00
2022-09-23T05:07:33.899Z,100.00
2022-09-23T05:09:36.820Z,100.00
2022-09-23T05:11:40.182Z,100.00
2022-09-23T05:13:42.958Z,100.00
2022-09-23T05:15:45.821Z,100.00
2022-09-23T05:17:50.063Z,100.00
2022-09-23T05:19:52.914Z,100.00
2022-09-23T05:21:55.648Z,100.00
2022-09-23T05:24:00.794Z,100.00
2022-09-23T05:26:06.599Z,100.00
2022-09-23T05:28:09.437Z,100.00
2022-09-23T05:30:12.751Z,100.00
2022-09-23T05:32:15.643Z,100.00
2022-09-23T05:34:19.739Z,100.00
2022-09-23T05:36:23.459Z,100.00
2022-09-23T05:38:26.394Z,100.00
2022-09-23T05:40:29.262Z,100.00
2022-09-23T05:42:32.083Z,100.00
2022-09-23T05:44:34.931Z,100.00
2022-09-23T05:46:37.855Z,100.00
2022-09-23T05:48:41.966Z,100.00
2022-09-23T05:50:52.087Z,100.00
2022-09-23T05:52:55.450Z,100.00
2022-09-23T05:54:58.305Z,100.00
2022-09-23T05:57:04.268Z,100.00
2022-09-23T05:59:08.007Z,100.00
2022-09-23T06:01:12.363Z,100.00
2022-09-23T06:03:16.048Z,100.00
2022-09-23T06:05:18.838Z,100.00
2022-09-23T06:07:22.974Z,100.00
2022-09-23T06:09:25.747Z,100.00
2022-09-23T06:11:31.021Z,100.00
2022-09-23T06:13:35.341Z,100.00
2022-09-23T06:15:39.165Z,100.00
2022-09-23T06:17:41.930Z,100.00
2022-09-23T06:19:44.648Z,100.00
2022-09-23T06:21:50.216Z,100.00
2022-09-23T06:24:02.099Z,100.00
2022-09-23T06:26:07.761Z,100.00
2022-09-23T06:28:13.396Z,100.00
2022-09-23T06:30:17.283Z,100.00
2022-09-23T06:32:20.342Z,100.00
2022-09-23T06:34:23.085Z,100.00
2022-09-23T06:36:40.298Z,100.00
2022-09-23T06:38:48.426Z,100.00
2022-09-23T06:40:53.101Z,100.00
2022-09-23T06:42:59.427Z,100.00
2022-09-23T06:45:02.189Z,100.00
2022-09-23T06:47:05.059Z,100.00
2022-09-23T06:49:07.851Z,100.00
2022-09-23T06:51:13.761Z,100.00
2022-09-23T06:53:16.884Z,100.00
2022-09-23T06:55:19.594Z,100.00
2022-09-23T06:57:24.346Z,100.00
2022-09-23T06:59:27.132Z,100.00
2022-09-23T07:01:30.019Z,100.00
2022-09-23T07:03:32.889Z,100.00
2022-09-23T07:05:35.726Z,100.00
2022-09-23T07:07:39.358Z,100.00
2022-09-23T07:09:42.152Z,100.00
2022-09-23T07:11:44.877Z,100.00
2022-09-23T07:13:49.143Z,100.00
2022-09-23T07:15:52.502Z,100.00
2022-09-23T07:17:55.621Z,100.00
2022-09-23T07:19:58.403Z,100.00
2022-09-23T07:22:01.180Z,100.00
2022-09-23T07:24:04.981Z,100.00
2022-09-23T07:26:08.781Z,100.00
2022-09-23T07:28:11.631Z,100.00
2022-09-23T07:30:23.466Z,100.00
2022-09-23T07:32:31.639Z,100.00
2022-09-23T07:34:36.370Z,100.00
2022-09-23T07:36:40.712Z,100.00
2022-09-23T07:38:45.698Z,100.00
2022-09-23T07:40:49.172Z,99.68
2022-09-23T07:42:52.159Z,99.88
2022-09-23T07:44:55.399Z,100.00
2022-09-23T07:47:00.311Z,100.00
2022-09-23T07:49:03.050Z,100.00
2022-09-23T07:51:10.326Z,100.00
2022-09-23T07:53:13.559Z,100.00
2022-09-23T07:55:20.730Z,100.00
2022-09-23T07:57:24.081Z,100.00
2022-09-23T07:59:27.300Z,97.19
2022-09-23T08:01:31.722Z,94.70
2022-09-23T08:03:36.273Z,91.28
2022-09-23T08:05:39.147Z,92.11
2022-09-23T08:07:41.969Z,90.89
2022-09-23T08:09:45.663Z,90.66
2022-09-23T08:11:49.536Z,90.50
2022-09-23T08:13:52.535Z,89.78
2022-09-23T08:15:55.831Z,90.76
2022-09-23T08:18:01.211Z,91.69
2022-09-23T08:20:06.299Z,90.86
2022-09-23T08:22:09.280Z,90.61
2022-09-23T08:24:15.369Z,90.67
2022-09-23T08:26:22.031Z,90.48
2022-09-23T08:28:26.098Z,89.81
2022-09-23T08:30:29.139Z,90.44
2022-09-23T08:32:32.155Z,90.42
2022-09-23T08:34:35.692Z,90.67
2022-09-23T08:36:40.238Z,90.82
2022-09-23T08:38:42.992Z,90.01
2022-09-23T08:40:50.331Z,89.49
2022-09-23T08:42:53.381Z,88.79
2022-09-23T08:45:00.750Z,87.80
2022-09-23T08:47:12.046Z,87.13
2022-09-23T08:49:23.272Z,87.49
2022-09-23T08:51:35.158Z,87.29
2022-09-23T08:53:39.910Z,86.56
2022-09-23T08:55:47.915Z,86.61
2022-09-23T09:00:35.355Z,85.85
2022-09-23T09:02:38.199Z,84.27
2022-09-23T09:04:45.344Z,83.57
2022-09-23T09:06:54.879Z,82.39
2022-09-23T09:09:04.652Z,81.21
2022-09-23T09:11:08.703Z,80.16
2022-09-23T09:13:23.980Z,80.27
2022-09-23T09:15:29.611Z,79.55
2022-09-23T09:17:38.475Z,82.21
2022-09-23T09:19:56.479Z,80.04
2022-09-23T09:21:59.320Z,79.29
2022-09-23T09:24:09.098Z,78.35
2022-09-23T09:26:14.401Z,78.40
2022-09-23T09:28:22.975Z,80.11
2022-09-23T09:30:26.017Z,79.84
2022-09-23T09:32:37.770Z,79.59
2022-09-23T09:34:47.758Z,78.57
2022-09-23T09:37:04.697Z,76.76
2022-09-23T09:39:13.400Z,74.87
2022-09-23T09:41:21.380Z,74.06
2022-09-23T09:43:24.236Z,73.92
2022-09-23T09:45:46.439Z,73.17
2022-09-23T09:47:56.668Z,71.94
2022-09-23T09:50:07.159Z,70.91
2022-09-23T09:52:21.297Z,70.77
2022-09-23T09:54:26.888Z,68.30
2022-09-23T09:56:34.675Z,67.88
2022-09-23T09:58:48.301Z,68.31
2022-09-23T10:00:52.811Z,65.07
2022-09-23T10:02:59.339Z,65.83
2022-09-23T10:05:06.557Z,64.13
2022-09-23T10:07:14.203Z,61.82
2022-09-23T10:09:19.509Z,61.62
2022-09-23T10:11:23.637Z,62.49
2022-09-23T10:13:30.119Z,62.53
2022-09-23T10:15:44.657Z,57.46
2022-09-23T10:17:52.353Z,56.36
2022-09-23T10:20:00.297Z,53.24
2022-09-23T10:22:10.890Z,54.21
2022-09-23T10:24:22.914Z,54.33
2022-09-23T10:26:32.404Z,54.46
2022-09-23T10:28:42.887Z,54.13
2022-09-23T10:31:06.170Z,53.00
2022-09-23T10:33:28.028Z,51.91
2022-09-23T10:35:33.945Z,52.50
2022-09-23T10:37:39.660Z,51.46
2022-09-23T10:40:00.136Z,49.75
2022-09-23T10:42:27.281Z,48.03
2022-09-23T10:44:57.167Z,48.90
2022-09-23T10:47:10.208Z,49.05
2022-09-23T10:49:37.873Z,49.96
2022-09-23T10:51:48.903Z,51.11
2022-09-23T10:54:03.011Z,49.56
2022-09-23T10:56:30.661Z,48.39
2022-09-23T10:59:00.364Z,48.12
2022-09-23T11:01:12.948Z,47.38
2022-09-23T11:03:45.512Z,46.15
2022-09-23T11:06:01.868Z,46.06
2022-09-23T11:08:20.584Z,45.00
2022-09-23T11:10:52.972Z,44.64
2022-09-23T11:13:06.094Z,43.97
2022-09-23T11:15:27.568Z,44.32
2022-09-23T11:17:52.665Z,44.57
2022-09-23T11:20:23.107Z,44.04
2022-09-23T11:22:43.879Z,47.16
2022-09-23T11:25:12.611Z,47.88
2022-09-23T11:27:30.890Z,45.31
2022-09-23T11:29:52.677Z,43.92
2022-09-23T11:32:11.262Z,42.96
2022-09-23T11:34:40.087Z,43.92
2022-09-23T11:36:51.753Z,44.95
2022-09-23T11:38:57.672Z,45.27
2022-09-23T11:41:04.961Z,45.33
2022-09-23T11:43:18.410Z,45.36
2022-09-23T11:45:25.763Z,46.24
2022-09-23T11:47:39.684Z,47.38
2022-09-23T11:49:49.441Z,47.46
2022-09-23T11:52:02.917Z,46.58
2022-09-23T11:54:11.655Z,45.81
2022-09-23T11:56:33.333Z,45.20
2022-09-23T11:58:47.594Z,51.49
2022-09-23T12:01:01.538Z,50.23
2022-09-23T12:03:13.240Z,47.65
2022-09-23T12:05:22.238Z,49.67
2022-09-23T12:07:30.959Z,52.95
2022-09-23T12:09:57.725Z,53.48
2022-09-23T12:12:11.685Z,50.88
2022-09-23T12:14:21.503Z,52.04
2022-09-23T12:16:48.661Z,52.66
2022-09-23T12:19:14.894Z,53.16
2022-09-23T12:21:50.706Z,55.57
2022-09-23T12:24:19.017Z,53.49
2022-09-23T12:26:25.430Z,51.49
2022-09-23T12:28:35.690Z,51.40
2022-09-23T12:30:40.834Z,49.96
2022-09-23T12:32:44.493Z,48.15
2022-09-23T12:34:51.915Z,45.93
2022-09-23T12:36:54.785Z,44.12
2022-09-23T12:39:03.862Z,43.51
2022-09-23T12:41:25.382Z,40.34
2022-09-23T12:43:31.475Z,39.92
2022-09-23T12:45:39.184Z,39.61
2022-09-23T12:47:41.977Z,38.63
2022-09-23T12:49:44.779Z,39.08
2022-09-23T12:52:16.095Z,39.15
2022-09-23T12:54:25.286Z,39.12
2022-09-23T12:56:50.546Z,38.87
2022-09-23T12:59:11.356Z,40.11
2022-09-23T13:01:20.401Z,40.31
2022-09-23T13:03:41.417Z,40.18
2022-09-23T13:06:05.563Z,39.53
2022-09-23T13:08:14.707Z,37.61
2022-09-23T13:10:28.939Z,37.43
2022-09-23T13:12:36.237Z,37.34
2022-09-23T13:14:41.044Z,37.90
2022-09-23T13:16:45.890Z,36.86
2022-09-23T13:18:52.608Z,36.95
2022-09-23T13:20:57.222Z,36.31
2022-09-23T13:23:32.585Z,36.67
2022-09-23T13:25:41.211Z,34.29
2022-09-23T13:27:47.749Z,34.50
2022-09-23T13:29:59.836Z,33.81
2022-09-23T13:32:03.319Z,33.57
2022-09-23T13:34:08.961Z,33.72
2022-09-23T13:36:15.290Z,33.23
2022-09-23T13:38:25.906Z,34.49
2022-09-23T13:40:31.673Z,34.34
2022-09-23T13:42:35.994Z,35.70
2022-09-23T13:44:41.747Z,34.73
2022-09-23T13:46:48.565Z,33.54
2022-09-23T13:48:54.705Z,33.68
2022-09-23T13:50:57.596Z,32.62
2022-09-23T13:53:02.660Z,32.38
2022-09-23T13:55:06.123Z,31.41
2022-09-23T13:57:26.298Z,33.51
2022-09-23T13:59:30.878Z,34.64
2022-09-23T14:01:36.198Z,36.08
2022-09-23T14:03:40.366Z,36.12
2022-09-23T14:05:43.533Z,36.08
2022-09-23T14:07:46.548Z,34.98
2022-09-23T14:09:52.601Z,34.57
2022-09-23T14:11:57.964Z,35.38
2022-09-23T14:14:07.515Z,36.37
2022-09-23T14:16:14.721Z,36.70
2022-09-23T14:18:27.633Z,36.47
2022-09-23T14:20:30.645Z,37.38
2022-09-23T14:22:33.419Z,37.05
2022-09-23T14:24:37.664Z,36.72
2022-09-23T14:26:42.644Z,37.89
2022-09-23T14:28:45.728Z,41.10
2022-09-23T14:30:52.129Z,44.56
2022-09-23T14:32:55.082Z,46.72
2022-09-23T14:35:17.229Z,47.00
2022-09-23T14:37:45.145Z,51.27
2022-09-23T14:39:54.569Z,53.41
2022-09-23T14:42:00.626Z,52.73
2022-09-23T14:44:04.665Z,52.98
2022-09-23T14:46:18.919Z,51.95
2022-09-23T14:48:26.072Z,54.66
2022-09-23T14:50:48.290Z,54.99
2022-09-23T14:52:51.420Z,54.31
2022-09-23T14:54:54.353Z,52.72
2022-09-23T14:56:57.721Z,51.86
2022-09-23T14:59:01.700Z,50.89
2022-09-23T15:01:24.644Z,53.94
2022-09-23T15:03:29.863Z,53.62
2022-09-23T15:05:42.160Z,54.86
2022-09-23T15:07:48.588Z,52.00
2022-09-23T15:09:52.929Z,50.78
2022-09-23T15:12:01.619Z,51.74
2022-09-23T15:14:33.097Z,53.14
2022-09-23T15:16:29.212Z,47.32
2022-09-23T15:18:36.319Z,49.70
2022-09-23T15:20:39.129Z,48.08
2022-09-23T15:22:45.812Z,48.26
2022-09-23T15:24:48.637Z,44.22
2022-09-23T15:26:52.865Z,42.84
2022-09-23T15:28:58.376Z,42.66
2022-09-23T15:31:01.164Z,42.90
2022-09-23T15:33:03.941Z,42.47
2022-09-23T15:35:09.649Z,43.78
2022-09-23T15:37:13.382Z,45.20
2022-09-23T15:39:16.112Z,45.52
2022-09-23T15:41:18.970Z,46.66
2022-09-23T15:43:24.082Z,45.23
2022-09-23T15:45:34.193Z,43.25
2022-09-23T15:47:38.004Z,42.99
2022-09-23T15:49:40.836Z,43.08
2022-09-23T15:51:44.936Z,44.64
2022-09-23T15:53:47.914Z,44.71
2022-09-23T15:55:51.606Z,45.63
2022-09-23T15:57:54.546Z,44.79
2022-09-23T15:59:58.417Z,46.29
2022-09-23T16:02:06.766Z,45.95
2022-09-23T16:04:11.245Z,46.39
2022-09-23T16:06:15.307Z,48.06
2022-09-23T16:08:23.242Z,48.80
2022-09-23T16:10:26.643Z,49.66
2022-09-23T16:12:30.051Z,51.64
2022-09-23T16:14:32.754Z,56.34
2022-09-23T16:16:35.558Z,60.16
2022-09-23T16:18:39.275Z,65.09
2022-09-23T16:20:44.458Z,68.34
2022-09-23T16:22:53.928Z,69.54
2022-09-23T16:24:58.258Z,70.67
2022-09-23T16:27:05.751Z,72.55
2022-09-23T16:29:10.178Z,72.15
2022-09-23T16:31:15.932Z,72.91
2022-09-23T16:33:18.788Z,73.08
2022-09-23T16:35:22.124Z,74.84
2022-09-23T16:37:25.172Z,75.30
2022-09-23T16:39:27.893Z,77.21
2022-09-23T16:41:32.504Z,77.96
2022-09-23T16:43:39.641Z,75.77
2022-09-23T16:45:42.713Z,75.22
2022-09-23T16:47:46.538Z,77.04
2022-09-23T16:49:49.335Z,78.80
2022-09-23T16:51:52.131Z,79.84
2022-09-23T16:53:56.550Z,78.83
2022-09-23T16:55:59.286Z,77.32
2022-09-23T16:58:03.432Z,78.72
2022-09-23T17:00:26.377Z,79.75
2022-09-23T17:02:46.630Z,81.84
2022-09-23T17:04:49.347Z,83.42
2022-09-23T17:06:53.518Z,83.86
2022-09-23T17:08:56.904Z,84.44
2022-09-23T17:11:01.391Z,83.44
2022-09-23T17:13:05.760Z,85.73
2022-09-23T17:15:09.942Z,86.05
2022-09-23T17:17:12.718Z,86.37
2022-09-23T17:19:15.494Z,87.03
2022-09-23T17:21:18.471Z,87.03
2022-09-23T17:23:21.223Z,91.11
2022-09-23T17:25:23.922Z,89.84
2022-09-23T17:27:26.678Z,90.63
2022-09-23T17:29:30.774Z,89.53
2022-09-23T17:31:33.544Z,90.24
2022-09-23T17:33:38.246Z,90.71
2022-09-23T17:35:41.099Z,91.35
2022-09-23T17:37:43.781Z,90.64
2022-09-23T17:39:46.674Z,91.73
2022-09-23T17:41:49.339Z,92.25
2022-09-23T17:43:56.631Z,92.77
2022-09-23T17:46:05.234Z,92.69
2022-09-23T17:48:08.105Z,91.94
2022-09-23T17:50:10.909Z,93.91
2022-09-23T17:52:13.645Z,93.50
2022-09-23T17:54:16.378Z,93.34
2022-09-23T17:56:21.246Z,94.84
2022-09-23T17:58:25.951Z,94.62
2022-09-23T18:00:28.725Z,95.11
2022-09-23T18:02:32.896Z,96.66
2022-09-23T18:04:35.678Z,97.11
2022-09-23T18:06:38.535Z,97.65
2022-09-23T18:08:43.101Z,97.61
2022-09-23T18:10:45.973Z,96.86
2022-09-23T18:12:48.713Z,96.38
2022-09-23T18:14:51.484Z,96.03
2022-09-23T18:16:55.028Z,97.71
2022-09-23T18:19:01.170Z,97.36
2022-09-23T18:21:04.156Z,96.84
2022-09-23T18:23:06.936Z,97.45
2022-09-23T18:25:35.167Z,98.11
2022-09-23T18:27:34.610Z,98.45
2022-09-23T18:29:37.484Z,99.74
2022-09-23T18:31:41.199Z,100.00
2022-09-23T18:33:44.111Z,100.00
2022-09-23T18:35:48.385Z,100.00
2022-09-23T18:37:51.166Z,100.00
2022-09-23T18:39:53.948Z,100.00
2022-09-23T18:41:56.789Z,100.00
2022-09-23T18:43:59.927Z,100.00
2022-09-23T18:46:04.245Z,100.00
2022-09-23T18:48:24.405Z,100.00
2022-09-23T18:50:43.491Z,100.00
2022-09-23T18:52:48.162Z,100.00
2022-09-23T18:54:55.052Z,100.00
2022-09-23T18:56:59.235Z,100.00
2022-09-23T18:59:02.122Z,100.00
2022-09-23T19:01:06.876Z,96.74
2022-09-23T19:03:09.974Z,97.17
2022-09-23T19:05:12.775Z,99.37
2022-09-23T19:07:15.905Z,99.13
2022-09-23T19:09:20.095Z,99.74
2022-09-23T19:11:24.082Z,98.42
2022-09-23T19:13:27.520Z,98.49
2022-09-23T19:15:30.254Z,100.00
2022-09-23T19:17:33.203Z,99.92
2022-09-23T19:19:35.900Z,99.88
2022-09-23T19:21:38.612Z,99.00
2022-09-23T19:23:46.731Z,100.00
2022-09-23T19:25:50.892Z,100.00
2022-09-23T19:27:53.845Z,100.00
2022-09-23T19:29:57.764Z,100.00
2022-09-23T19:32:00.531Z,100.00
2022-09-23T19:34:10.066Z,100.00
2022-09-23T19:36:13.118Z,100.00
2022-09-23T19:38:17.622Z,100.00
2022-09-23T19:40:21.116Z,100.00
2022-09-23T19:42:27.645Z,100.00
2022-09-23T19:44:30.479Z,100.00
2022-09-23T19:46:36.630Z,100.00
2022-09-23T19:48:39.545Z,100.00
2022-09-23T19:50:42.282Z,100.00
2022-09-23T19:52:45.055Z,100.00
2022-09-23T19:54:48.593Z,100.00
2022-09-23T19:56:51.604Z,100.00
2022-09-23T19:58:57.124Z,100.00
2022-09-23T20:01:00.211Z,100.00
2022-09-23T20:03:03.084Z,100.00
2022-09-23T20:05:06.407Z,100.00
2022-09-23T20:07:09.492Z,100.00
2022-09-23T20:09:12.237Z,100.00
2022-09-23T20:11:17.376Z,100.00
2022-09-23T20:13:22.376Z,100.00
2022-09-23T20:15:27.635Z,100.00
2022-09-23T20:17:31.271Z,100.00
2022-09-23T20:19:34.097Z,100.00
2022-09-23T20:21:36.870Z,100.00
2022-09-23T20:23:39.798Z,100.00
2022-09-23T20:25:59.842Z,100.00
2022-09-23T20:28:03.089Z,100.00
2022-09-23T20:30:06.862Z,100.00
2022-09-23T20:32:11.313Z,100.00
2022-09-23T20:34:14.081Z,100.00
2022-09-23T20:36:17.060Z,100.00
2022-09-23T20:38:19.825Z,100.00
2022-09-23T20:40:23.041Z,100.00
2022-09-23T20:42:25.857Z,100.00
2022-09-23T20:44:28.565Z,100.00
2022-09-23T20:46:31.338Z,100.00
2022-09-23T20:48:35.423Z,100.00
2022-09-23T20:50:38.825Z,100.00
2022-09-23T20:52:41.569Z,100.00
2022-09-23T20:54:44.615Z,100.00
2022-09-23T20:56:47.408Z,100.00
2022-09-23T20:58:50.764Z,100.00
2022-09-23T21:00:53.660Z,100.00
2022-09-23T21:02:56.375Z,100.00
2022-09-23T21:05:00.448Z,100.00
2022-09-23T21:07:03.200Z,100.00
2022-09-23T21:09:07.489Z,100.00
2022-09-23T21:11:12.664Z,100.00
2022-09-23T21:13:15.421Z,100.00
2022-09-23T21:15:18.201Z,100.00
2022-09-23T21:17:20.935Z,100.00
2022-09-23T21:19:24.369Z,100.00
2022-09-23T21:21:28.577Z,100.00
2022-09-23T21:23:33.089Z,100.00
2022-09-23T21:25:36.642Z,100.00
2022-09-23T21:27:40.042Z,100.00
2022-09-23T21:29:42.915Z,100.00
2022-09-23T21:31:46.473Z,100.00
2022-09-23T21:33:50.217Z,100.00
2022-09-23T21:35:55.833Z,100.00
2022-09-23T21:38:02.262Z,100.00
2022-09-23T21:40:23.521Z,100.00
2022-09-23T21:42:26.485Z,100.00
2022-09-23T21:44:29.507Z,100.00
2022-09-23T21:46:33.766Z,100.00
2022-09-23T21:48:39.090Z,100.00
2022-09-23T21:50:42.050Z,100.00
2022-09-23T21:52:46.357Z,100.00
2022-09-23T21:54:50.544Z,100.00
2022-09-23T21:56:54.295Z,100.00
2022-09-23T21:58:59.465Z,100.00
2022-09-23T22:01:03.492Z,100.00
2022-09-23T22:03:06.332Z,100.00
2022-09-23T22:05:10.421Z,100.00
2022-09-23T22:07:13.220Z,100.00
2022-09-23T22:09:18.316Z,100.00
2022-09-23T22:11:54.614Z,100.00
2022-09-23T22:13:57.857Z,100.00
2022-09-23T22:16:06.157Z,100.00
2022-09-23T22:18:09.135Z,100.00
2022-09-23T22:20:12.040Z,100.00
2022-09-23T22:22:17.834Z,100.00
2022-09-23T22:24:21.390Z,100.00
2022-09-23T22:26:26.108Z,100.00
2022-09-23T22:28:51.930Z,100.00
2022-09-23T22:31:12.466Z,100.00
2022-09-23T22:33:16.368Z,100.00
2022-09-23T22:35:20.250Z,100.00
2022-09-23T22:37:27.336Z,100.00
2022-09-23T22:39:31.241Z,100.00
2022-09-23T22:41:36.505Z,100.00
2022-09-23T22:43:39.256Z,100.00
2022-09-23T22:45:49.945Z,100.00
2022-09-23T22:47:53.356Z,100.00
2022-09-23T22:49:56.387Z,100.00
2022-09-23T22:51:59.490Z,100.00
2022-09-23T22:54:02.252Z,100.00
2022-09-23T22:56:05.015Z,100.00
2022-09-23T22:58:30.817Z,100.00
2022-09-23T23:00:32.098Z,100.00
2022-09-23T23:02:35.045Z,100.00
2022-09-23T23:04:37.948Z,100.00
2022-09-23T23:06:41.330Z,100.00
2022-09-23T23:08:44.044Z,100.00
2022-09-23T23:10:47.367Z,100.00
2022-09-23T23:12:53.254Z,100.00
2022-09-23T23:14:57.959Z,100.00
2022-09-23T23:17:00.782Z,100.00
2022-09-23T23:19:06.669Z,100.00
2022-09-23T23:21:12.478Z,100.00
2022-09-23T23:23:15.376Z,100.00
2022-09-23T23:25:18.646Z,100.00
2022-09-23T23:27:21.782Z,100.00
2022-09-23T23:29:24.962Z,100.00
2022-09-23T23:31:32.129Z,100.00
2022-09-23T23:33:35.754Z,100.00
2022-09-23T23:35:38.528Z,100.00
2022-09-23T23:37:41.415Z,100.00
2022-09-23T23:39:47.134Z,100.00
2022-09-23T23:41:52.810Z,100.00
2022-09-23T23:43:57.922Z,100.00
2022-09-23T23:46:01.513Z,100.00
2022-09-23T23:48:05.800Z,100.00
2022-09-23T23:50:09.787Z,100.00
2022-09-23T23:52:12.687Z,100.00
2022-09-23T23:54:16.166Z,100.00
2022-09-23T23:56:20.385Z,100.00
2022-09-23T23:58:23.362Z,100.00
